Time;durP1;ratioP1;P1;durP2;ratioP2;P2;SDS_P1;SDS_P2;PMS_P1;PMS_P2;Temp;Humidity;BMP_temperature;BMP_pressure;BME280_temperature;BME280_humidity;BME280_pressure;Samples;Min_cycle;Max_cycle;Signal;HPM_P1;HPM_P2
2022/08/18 00:01:41;;;;;;;;;;;;;;;22.03;29.64;97380.81;4938815;29;1911;-78
2022/08/18 00:04:07;;;;;;;;;;;;;;;22.02;29.32;97376.38;4882516;29;1145;-78
2022/08/18 00:06:33;;;;;;;;;;;;;;;21.99;29.57;97377.34;4882236;29;982;-78
2022/08/18 00:08:58;;;;;;;;;;;;;;;22.06;29.39;97377.06;4885418;29;958;-78
2022/08/18 00:11:24;;;;;;;;;;;;;;;22.03;29.37;97367.44;4901001;29;887;-78
2022/08/18 00:13:49;;;;;;;;;;;;;;;22.07;29.41;97375.78;4897904;29;1478;-78
2022/08/18 00:16:15;;;;;;;;;;;;;;;21.90;29.82;97368.78;4882152;29;972;-78
2022/08/18 00:18:40;;;;;;;;;;;;;;;22.03;29.58;97375.16;4882235;29;1070;-78
2022/08/18 00:21:06;;;;;;;;;;;;;;;22.12;29.58;97383.72;4882278;29;969;-78
2022/08/18 00:23:32;;;;;;;;;;;;;;;21.85;29.92;97390.78;4881761;29;1974;-78
2022/08/18 00:25:59;;;;;;;;;;;;;;;22.06;29.45;97377.06;4882316;29;935;-78
2022/08/18 00:28:24;;;;;;;;;;;;;;;21.68;30.33;97391.44;4882082;29;960;-78
2022/08/18 00:30:49;;;;;;;;;;;;;;;21.97;29.61;97385.53;4882165;29;1007;-79
2022/08/18 00:33:15;;;;;;;;;;;;;;;21.57;30.52;97392.63;4923948;29;1051;-78
2022/08/18 00:35:40;;;;;;;;;;;;;;;21.89;29.71;97396.31;4981441;28;1038;-79
2022/08/18 00:38:06;;;;;;;;;;;;;;;22.04;29.69;97385.22;4996832;28;1015;-78
2022/08/18 00:40:38;;;;;;;;;;;;;;;22.10;29.57;97389.03;4980600;28;990;-78
2022/08/18 00:43:04;;;;;;;;;;;;;;;22.07;29.53;97392.78;4996628;28;1902;-78
2022/08/18 00:45:31;;;;;;;;;;;;;;;22.15;29.54;97390.53;4992789;28;980;-79
2022/08/18 00:47:57;;;;;;;;;;;;;;;21.79;29.89;97403.16;4997966;28;902;-77
2022/08/18 00:50:23;;;;;;;;;;;;;;;22.12;29.66;97392.22;4998325;28;914;-77
2022/08/18 00:52:51;;;;;;;;;;;;;;;22.09;29.58;97393.13;4997518;28;948;-79
2022/08/18 00:55:16;;;;;;;;;;;;;;;21.82;29.94;97396.59;4998704;28;892;-78
2022/08/18 00:57:42;;;;;;;;;;;;;;;22.25;29.46;97395.78;4997156;28;1021;-79
2022/08/18 01:00:11;;;;;;;;;;;;;;;21.82;29.91;97400.22;4997257;28;970;-78
2022/08/18 01:02:39;;;;;;;;;;;;;;;22.04;29.48;97394.53;4996082;28;1977;-78
2022/08/18 01:05:06;;;;;;;;;;;;;;;21.62;30.27;97398.94;4956416;29;957;-78
2022/08/18 01:07:35;;;;;;;;;;;;;;;21.83;30.18;97390.44;4921954;29;957;-78
2022/08/18 01:10:03;;;;;;;;;;;;;;;21.84;29.96;97394.84;4937738;29;1009;-78
2022/08/18 01:12:29;;;;;;;;;;;;;;;21.70;30.46;97395.38;4937893;29;972;-78
2022/08/18 01:14:54;;;;;;;;;;;;;;;21.66;30.26;97394.75;4937564;29;942;-78
2022/08/18 01:23:05;;;;;;;;;;;;;;;22.00;29.83;97393.84;4904848;29;1907;-78
2022/08/18 01:28:18;;;;;;;;;;;;;;;21.82;29.97;97402.25;4899516;29;931;-78
2022/08/18 01:30:44;;;;;;;;;;;;;;;21.69;30.39;97395.84;4899701;29;1061;-78
2022/08/18 01:33:11;;;;;;;;;;;;;;;21.89;29.99;97395.53;4899173;29;1199;-78
2022/08/18 01:35:36;;;;;;;;;;;;;;;21.84;30.03;97400.53;4883687;29;1026;-78
2022/08/18 01:38:02;;;;;;;;;;;;;;;21.74;30.13;97390.38;4910700;29;1139;-78
2022/08/18 01:40:27;;;;;;;;;;;;;;;22.05;29.68;97398.94;4937468;29;1112;-78
2022/08/18 01:42:55;;;;;;;;;;;;;;;21.85;30.27;97396.44;4937237;29;1915;-78
2022/08/18 01:45:20;;;;;;;;;;;;;;;22.04;29.88;97394.53;4937668;29;974;-78
2022/08/18 01:47:46;;;;;;;;;;;;;;;21.76;30.48;97402.06;4947456;28;951;-78
2022/08/18 01:50:12;;;;;;;;;;;;;;;21.87;30.43;97403.69;4975654;28;998;-78
2022/08/18 01:52:38;;;;;;;;;;;;;;;22.13;29.81;97393.81;4975469;28;975;-78
2022/08/18 01:55:03;;;;;;;;;;;;;;;22.00;30.33;97395.91;4975853;28;1029;-78
2022/08/18 01:57:29;;;;;;;;;;;;;;;21.88;30.49;97402.44;4975389;28;971;-78
2022/08/18 01:59:54;;;;;;;;;;;;;;;22.08;30.00;97400.06;4995027;28;1045;-78
2022/08/18 02:02:23;;;;;;;;;;;;;;;22.06;29.56;97397.66;4997200;28;1906;-78
2022/08/18 02:04:50;;;;;;;;;;;;;;;22.18;29.70;97404.56;4996014;28;977;-77
2022/08/18 02:07:15;;;;;;;;;;;;;;;21.85;30.13;97407.75;4994359;28;1133;-78
2022/08/18 02:09:41;;;;;;;;;;;;;;;21.81;30.11;97407.13;4994962;28;1011;-78
2022/08/18 02:12:07;;;;;;;;;;;;;;;21.79;30.29;97398.28;4994535;28;861;-78
2022/08/18 02:14:33;;;;;;;;;;;;;;;21.73;30.48;97394.47;4994713;28;976;-78
2022/08/18 02:16:59;;;;;;;;;;;;;;;21.80;30.14;97399.84;4994792;28;1194;-79
2022/08/18 02:19:25;;;;;;;;;;;;;;;21.86;29.98;97397.22;4994450;28;1531;-78
2022/08/18 02:21:51;;;;;;;;;;;;;;;22.10;29.89;97406.03;4994693;28;1894;-78
2022/08/18 02:24:17;;;;;;;;;;;;;;;22.03;29.64;97395.00;4960396;28;1289;-78
2022/08/18 02:26:42;;;;;;;;;;;;;;;21.81;30.33;97404.28;4955616;29;934;-78
2022/08/18 02:29:08;;;;;;;;;;;;;;;21.74;30.40;97401.72;4955964;29;1008;-78
2022/08/18 02:31:33;;;;;;;;;;;;;;;21.90;30.03;97403.53;4955984;29;971;-78
2022/08/18 02:33:59;;;;;;;;;;;;;;;21.95;29.83;97394.47;4955602;29;1153;-78
2022/08/18 02:36:24;;;;;;;;;;;;;;;22.05;29.90;97393.25;4955841;29;1122;-78
2022/08/18 02:38:50;;;;;;;;;;;;;;;21.87;29.95;97390.31;4955726;29;976;-78
2022/08/18 02:41:15;;;;;;;;;;;;;;;21.62;30.48;97396.91;4923462;29;992;-78
2022/08/18 02:43:41;;;;;;;;;;;;;;;21.97;29.88;97396.84;4955312;29;1898;-78
2022/08/18 02:46:06;;;;;;;;;;;;;;;21.98;29.54;97401.25;4924107;29;1040;-77
2022/08/18 02:48:35;;;;;;;;;;;;;;;21.88;30.06;97408.09;4955832;29;1008;-77
2022/08/18 02:51:04;;;;;;;;;;;;;;;21.87;29.91;97409.38;4939819;29;944;-78
2022/08/18 02:53:30;;;;;;;;;;;;;;;21.92;29.55;97400.28;4939834;29;1034;-78
2022/08/18 02:56:03;;;;;;;;;;;;;;;21.96;29.53;97406.56;4967221;28;935;-77
2022/08/18 02:58:28;;;;;;;;;;;;;;;21.68;30.19;97397.88;4975942;28;1028;-78
2022/08/18 03:00:54;;;;;;;;;;;;;;;21.69;29.88;97407.97;4977071;28;962;-77
2022/08/18 03:03:19;;;;;;;;;;;;;;;21.80;29.60;97408.34;4975916;28;1981;-77
2022/08/18 03:05:45;;;;;;;;;;;;;;;21.93;29.26;97404.69;4975493;28;1002;-78
2022/08/18 03:08:10;;;;;;;;;;;;;;;21.94;29.63;97409.09;4976694;28;956;-78
2022/08/18 03:10:36;;;;;;;;;;;;;;;21.78;29.53;97408.03;4976942;28;909;-77
2022/08/18 03:13:01;;;;;;;;;;;;;;;21.74;29.73;97413.03;4979508;28;1501;-77
2022/08/18 03:15:27;;;;;;;;;;;;;;;21.73;29.66;97411.47;4979427;28;924;-78
2022/08/18 03:17:52;;;;;;;;;;;;;;;21.98;29.25;97421.09;4979680;28;812;-78
2022/08/18 03:20:18;;;;;;;;;;;;;;;21.77;29.25;97372.47;4962349;28;1142;-78
2022/08/18 03:22:44;;;;;;;;;;;;;;;22.04;29.33;97419.22;4985786;28;1922;-77
2022/08/18 03:25:09;;;;;;;;;;;;;;;22.04;29.41;97424.91;5019662;28;1055;-78
2022/08/18 03:27:34;;;;;;;;;;;;;;;21.97;29.19;97425.19;5019846;28;892;-77
2022/08/18 03:30:01;;;;;;;;;;;;;;;21.81;29.70;97428.97;5019703;28;913;-77
2022/08/18 03:32:26;;;;;;;;;;;;;;;21.85;29.41;97424.75;5002427;28;1026;-78
2022/08/18 03:34:52;;;;;;;;;;;;;;;21.93;29.40;97428.13;5019606;28;946;-77
2022/08/18 03:37:18;;;;;;;;;;;;;;;22.16;29.11;97438.22;5002053;28;941;-77
2022/08/18 03:39:43;;;;;;;;;;;;;;;22.07;29.47;97429.63;5019588;28;1027;-77
2022/08/18 03:42:09;;;;;;;;;;;;;;;22.21;29.10;97436.84;5019597;28;1911;-78
2022/08/18 03:44:37;;;;;;;;;;;;;;;21.73;29.71;97428.44;4982052;28;1722;-78
2022/08/18 03:47:06;;;;;;;;;;;;;;;22.10;29.12;97445.72;4989050;28;1777;-78
2022/08/18 03:49:32;;;;;;;;;;;;;;;22.00;29.14;97441.22;4977843;28;972;-78
2022/08/18 03:51:59;;;;;;;;;;;;;;;21.84;29.30;97440.16;4977533;28;974;-77
2022/08/18 03:54:24;;;;;;;;;;;;;;;22.26;28.79;97451.19;4976389;28;1892;-77
2022/08/18 03:56:50;;;;;;;;;;;;;;;21.80;29.64;97445.16;4977360;28;969;-77
2022/08/18 03:59:17;;;;;;;;;;;;;;;21.75;29.73;97454.25;4977505;28;998;-77
2022/08/18 04:01:43;;;;;;;;;;;;;;;22.01;29.52;97456.97;4961489;28;1979;-78
2022/08/18 04:04:09;;;;;;;;;;;;;;;22.04;29.50;97459.69;4971386;28;1596;-78
2022/08/18 04:06:38;;;;;;;;;;;;;;;21.82;29.84;97459.69;4958188;29;996;-78
2022/08/18 04:09:05;;;;;;;;;;;;;;;21.91;29.74;97455.31;4926566;29;990;-78
2022/08/18 04:11:31;;;;;;;;;;;;;;;21.90;29.78;97463.03;4942192;29;945;-77
2022/08/18 04:13:59;;;;;;;;;;;;;;;22.02;29.77;97462.19;4960287;28;1589;-77
2022/08/18 04:16:25;;;;;;;;;;;;;;;22.16;29.55;97460.09;4930524;28;938;-78
2022/08/18 04:18:50;;;;;;;;;;;;;;;22.01;29.81;97473.97;4977463;28;1042;-78
2022/08/18 04:21:16;;;;;;;;;;;;;;;22.09;29.41;97466.81;4994848;28;1082;-77
2022/08/18 04:23:41;;;;;;;;;;;;;;;21.82;29.73;97473.84;4998790;28;1906;-77
2022/08/18 04:26:07;;;;;;;;;;;;;;;21.99;29.57;97470.81;4995286;28;1911;-78
2022/08/18 04:28:33;;;;;;;;;;;;;;;21.95;29.94;97472.97;4937589;29;1811;-78
2022/08/18 04:30:58;;;;;;;;;;;;;;;22.02;29.63;97481.22;4938630;29;998;-78
2022/08/18 04:33:25;;;;;;;;;;;;;;;22.00;29.71;97480.88;4938355;29;1015;-78
2022/08/18 04:35:50;;;;;;;;;;;;;;;21.85;29.90;97475.72;4922120;29;1872;-78
2022/08/18 04:38:15;;;;;;;;;;;;;;;22.12;29.46;97468.72;4938492;29;1006;-78
2022/08/18 04:40:41;;;;;;;;;;;;;;;21.83;30.08;97468.97;4936682;29;1703;-79
2022/08/18 04:43:13;;;;;;;;;;;;;;;21.81;30.12;97469.44;4930408;29;1919;-77
2022/08/18 04:45:43;;;;;;;;;;;;;;;21.99;29.97;97482.16;4938463;29;1013;-78
2022/08/18 04:48:09;;;;;;;;;;;;;;;21.89;29.92;97474.81;4922352;29;974;-78
2022/08/18 04:50:35;;;;;;;;;;;;;;;21.93;30.04;97475.50;4937666;29;1813;-78
2022/08/18 04:55:51;;;;;;;;;;;;;;;22.01;29.84;97476.81;4911046;29;974;-78
2022/08/18 04:58:20;;;;;;;;;;;;;;;22.12;29.80;97471.56;4938222;29;1050;-78
2022/08/18 05:00:45;;;;;;;;;;;;;;;21.88;30.54;97478.91;4980522;28;1561;-77
2022/08/18 05:03:11;;;;;;;;;;;;;;;22.06;30.13;97479.84;4998697;28;1974;-78
2022/08/18 05:05:36;;;;;;;;;;;;;;;22.00;30.06;97480.88;4997553;28;1633;-78
2022/08/18 05:08:02;;;;;;;;;;;;;;;22.20;30.03;97484.22;4996423;28;1694;-78
2022/08/18 05:10:27;;;;;;;;;;;;;;;21.79;30.49;97483.25;4998217;28;833;-78
2022/08/18 05:12:53;;;;;;;;;;;;;;;22.07;30.14;97481.44;4998030;28;940;-78
2022/08/18 05:15:19;;;;;;;;;;;;;;;22.01;30.24;97482.47;4998220;28;904;-78
2022/08/18 05:17:44;;;;;;;;;;;;;;;21.95;30.33;97484.31;4924695;29;976;-78
2022/08/18 05:20:10;;;;;;;;;;;;;;;22.13;29.88;97483.72;4940594;29;1018;-77
2022/08/18 05:22:39;;;;;;;;;;;;;;;21.96;30.29;97492.34;4956318;29;1910;-78
2022/08/18 05:25:05;;;;;;;;;;;;;;;21.88;30.32;97484.56;4890814;29;1972;-78
2022/08/18 05:27:35;;;;;;;;;;;;;;;21.76;30.64;97487.00;4881068;29;1137;-78
2022/08/18 05:30:01;;;;;;;;;;;;;;;21.96;30.45;97491.56;4881495;29;950;-78
2022/08/18 05:32:30;;;;;;;;;;;;;;;22.22;29.80;97492.25;4880793;29;983;-78
2022/08/18 05:34:56;;;;;;;;;;;;;;;21.83;30.77;97486.75;4864606;29;997;-78
2022/08/18 05:37:27;;;;;;;;;;;;;;;21.95;30.42;97479.44;4865740;29;952;-78
2022/08/18 05:39:54;;;;;;;;;;;;;;;21.93;30.62;97493.28;4881253;29;1066;-78
2022/08/18 05:42:20;;;;;;;;;;;;;;;22.25;29.96;97483.63;4880992;29;1974;-78
2022/08/18 05:44:46;;;;;;;;;;;;;;;22.08;30.39;97493.56;4880747;29;1088;-78
2022/08/18 05:47:13;;;;;;;;;;;;;;;21.74;31.03;97489.50;4880441;29;1271;-77
2022/08/18 05:49:39;;;;;;;;;;;;;;;22.08;30.55;97487.88;4896961;29;1176;-77
2022/08/18 05:52:08;;;;;;;;;;;;;;;22.06;30.36;97490.38;4883945;29;989;-78
2022/08/18 05:57:22;;;;;;;;;;;;;;;22.08;30.28;97493.56;4880963;29;951;-79
2022/08/18 05:59:47;;;;;;;;;;;;;;;21.99;30.40;97490.66;4895822;29;1072;-77
2022/08/18 06:02:43;;;;;;;;;;;;;;;21.93;30.64;97486.81;4906276;29;1981;-78
2022/08/18 06:05:11;;;;;;;;;;;;;;;22.11;30.34;97492.66;4918871;29;1017;-77
2022/08/18 06:07:40;;;;;;;;;;;;;;;22.06;30.50;97496.84;4902413;29;997;-77
2022/08/18 06:10:06;;;;;;;;;;;;;;;22.28;30.13;97496.09;4886348;29;996;-77
2022/08/18 06:12:37;;;;;;;;;;;;;;;22.04;30.46;97499.34;4886000;29;982;-78
2022/08/18 06:15:08;;;;;;;;;;;;;;;22.14;30.52;97500.25;4917224;29;1920;-78
2022/08/18 06:17:49;;;;;;;;;;;;;;;22.19;30.13;97498.84;4910833;29;941;-78
2022/08/18 06:20:19;;;;;;;;;;;;;;;22.12;30.22;97502.72;4939697;29;952;-78
2022/08/18 06:22:55;;;;;;;;;;;;;;;22.10;30.03;97502.38;4923615;29;1919;-78
2022/08/18 06:25:29;;;;;;;;;;;;;;;21.91;30.82;97498.59;4949852;28;1939;-77
2022/08/18 06:27:58;;;;;;;;;;;;;;;22.05;30.42;97500.13;4917559;29;985;-77
2022/08/18 06:30:31;;;;;;;;;;;;;;;22.19;30.23;97505.31;4917221;29;972;-78
2022/08/18 06:33:12;;;;;;;;;;;;;;;22.01;30.38;97505.13;4865204;29;1018;-78
2022/08/18 06:35:37;;;;;;;;;;;;;;;22.22;29.95;97510.03;4871689;29;1695;-78
2022/08/18 06:41:44;;;;;;;;;;;;;;;22.18;29.91;97520.75;4915691;29;1646;-78
2022/08/18 06:44:30;;;;;;;;;;;;;;;22.09;30.00;97524.25;4898128;29;1649;-77
2022/08/18 06:47:03;;;;;;;;;;;;;;;22.04;30.02;97515.56;4884466;29;1982;-79
2022/08/18 06:49:38;;;;;;;;;;;;;;;22.13;30.02;97515.66;4883186;29;1326;-78
2022/08/18 06:52:22;;;;;;;;;;;;;;;22.15;30.02;97509.53;4883381;29;1878;-78
2022/08/18 06:54:48;;;;;;;;;;;;;;;21.94;30.09;97511.84;4883523;29;1536;-78
2022/08/18 06:57:25;;;;;;;;;;;;;;;22.17;29.70;97518.34;4883387;29;961;-77
2022/08/18 06:59:53;;;;;;;;;;;;;;;22.24;29.83;97529.44;4883701;29;941;-78
2022/08/18 07:02:21;;;;;;;;;;;;;;;22.02;30.13;97530.19;4903379;29;1988;-78
2022/08/18 07:05:05;;;;;;;;;;;;;;;22.18;29.93;97526.41;4901750;29;1816;-77
2022/08/18 07:07:31;;;;;;;;;;;;;;;22.01;29.98;97524.97;4939802;29;961;-77
2022/08/18 07:09:56;;;;;;;;;;;;;;;22.08;30.27;97527.56;4939797;29;1080;-77
2022/08/18 07:12:23;;;;;;;;;;;;;;;22.15;30.21;97532.97;4939710;29;1544;-78
2022/08/18 07:14:56;;;;;;;;;;;;;;;22.01;30.18;97520.09;4931861;29;1894;-78
2022/08/18 07:17:32;;;;;;;;;;;;;;;22.36;31.53;97532.19;4915290;29;1921;-72
2022/08/18 07:20:05;;;;;;;;;;;;;;;22.59;32.29;97538.66;4928964;29;1746;-77
2022/08/18 07:22:31;;;;;;;;;;;;;;;22.39;32.33;97529.72;4917898;29;1915;-77
2022/08/18 07:24:58;;;;;;;;;;;;;;;22.61;31.46;97533.31;4920626;29;987;-77
2022/08/18 07:27:35;;;;;;;;;;;;;;;22.48;31.74;97539.03;4920274;29;1009;-78
2022/08/18 07:30:04;;;;;;;;;;;;;;;22.35;31.67;97546.84;4920331;29;1728;-78
2022/08/18 07:32:42;;;;;;;;;;;;;;;22.26;31.56;97538.25;4923013;29;963;-78
2022/08/18 07:35:07;;;;;;;;;;;;;;;22.39;31.45;97538.22;4926319;29;1786;-78
2022/08/18 07:37:33;;;;;;;;;;;;;;;22.55;30.83;97535.16;4899820;29;951;-77
2022/08/18 07:40:00;;;;;;;;;;;;;;;22.26;31.28;97547.56;4876234;29;1045;-77
2022/08/18 07:42:43;;;;;;;;;;;;;;;22.50;30.75;97541.44;4897322;29;1985;-78
2022/08/18 07:45:29;;;;;;;;;;;;;;;22.10;31.51;97547.72;4845319;29;1244;-77
2022/08/18 07:47:54;;;;;;;;;;;;;;;22.42;30.81;97546.56;4790691;29;1845;-77
2022/08/18 07:50:20;;;;;;;;;;;;;;;22.48;30.73;97543.91;4790777;29;1278;-77
2022/08/18 07:52:45;;;;;;;;;;;;;;;22.42;30.99;97534.44;4772637;30;1807;-78
2022/08/18 07:55:23;;;;;;;;;;;;;;;22.34;30.87;97546.06;4790632;29;1002;-78
2022/08/18 07:57:54;;;;;;;;;;;;;;;22.40;30.80;97543.41;4775728;29;1091;-77
2022/08/18 08:00:20;;;;;;;;;;;;;;;22.31;30.63;97529.97;4790652;29;1241;-77
2022/08/18 08:02:54;;;;;;;;;;;;;;;22.40;30.80;97542.63;4790597;29;1916;-78
2022/08/18 08:05:34;;;;;;;;;;;;;;;22.55;30.29;97538.00;4790552;29;972;-77
2022/08/18 08:08:09;;;;;;;;;;;;;;;22.35;30.87;97541.97;4794993;29;1812;-77
2022/08/18 08:10:42;;;;;;;;;;;;;;;22.35;30.63;97535.50;4809233;29;973;-77
2022/08/18 08:13:10;;;;;;;;;;;;;;;22.31;30.50;97535.63;4808455;29;1324;-77
2022/08/18 08:15:41;;;;;;;;;;;;;;;22.31;30.68;97529.97;4808459;29;999;-78
2022/08/18 08:18:09;;;;;;;;;;;;;;;22.17;31.04;97536.13;4809365;29;1761;-77
2022/08/18 08:20:54;;;;;;;;;;;;;;;22.59;30.26;97538.66;4818435;29;1851;-78
2022/08/18 08:23:37;;;;;;;;;;;;;;;22.42;30.81;97534.44;4846141;29;1990;-77
2022/08/18 08:26:05;;;;;;;;;;;;;;;22.39;30.77;97529.72;4863532;29;1019;-77
2022/08/18 08:28:38;;;;;;;;;;;;;;;22.31;30.66;97527.13;4881540;29;1011;-78
2022/08/18 08:31:06;;;;;;;;;;;;;;;22.22;31.03;97527.03;4877433;29;1896;-77
2022/08/18 08:33:52;;;;;;;;;;;;;;;21.99;31.23;97525.44;4893403;29;1684;-77
2022/08/18 08:36:20;;;;;;;;;;;;;;;22.11;31.14;97532.31;4885660;29;1869;-77
2022/08/18 08:38:49;;;;;;;;;;;;;;;22.55;30.27;97532.34;4865898;29;1367;-78
2022/08/18 08:41:21;;;;;;;;;;;;;;;22.30;30.70;97538.94;4880951;29;1862;-77
2022/08/18 08:44:06;;;;;;;;;;;;;;;22.06;31.31;97536.50;4881416;29;1999;-78
2022/08/18 08:46:40;;;;;;;;;;;;;;;22.19;31.09;97536.50;4834724;29;1086;-77
2022/08/18 08:49:12;;;;;;;;;;;;;;;22.33;30.64;97530.31;4844537;29;1015;-77
2022/08/18 08:51:48;;;;;;;;;;;;;;;22.36;30.91;97520.84;4842836;29;1720;-77
2022/08/18 08:54:18;;;;;;;;;;;;;;;22.39;30.97;97526.88;4839158;29;2055;-78
2022/08/18 08:56:45;;;;;;;;;;;;;;;22.51;30.45;97537.34;4828824;29;998;-77
2022/08/18 08:59:11;;;;;;;;;;;;;;;22.53;30.67;97537.66;4844167;29;959;-77
2022/08/18 09:01:45;;;;;;;;;;;;;;;22.44;30.81;97529.13;4843962;29;1036;-77
2022/08/18 09:04:29;;;;;;;;;;;;;;;22.36;30.79;97520.84;4840392;29;2004;-78
2022/08/18 09:07:13;;;;;;;;;;;;;;;22.25;30.98;97514.81;4843187;29;1667;-77
2022/08/18 09:09:56;;;;;;;;;;;;;;;22.55;30.82;97526.66;4843472;29;1032;-77
2022/08/18 09:12:31;;;;;;;;;;;;;;;22.55;30.71;97529.50;4834061;29;1069;-78
2022/08/18 09:14:59;;;;;;;;;;;;;;;22.31;31.10;97521.44;4825088;29;2085;-77
2022/08/18 09:17:24;;;;;;;;;;;;;;;22.53;30.67;97517.81;4825992;29;1811;-77
2022/08/18 09:20:05;;;;;;;;;;;;;;;22.51;30.76;97521.13;4825806;29;1039;-78
2022/08/18 09:22:30;;;;;;;;;;;;;;;22.57;30.59;97529.81;4827498;29;1900;-77
2022/08/18 09:24:56;;;;;;;;;;;;;;;22.44;30.97;97526.28;4913288;29;1597;-78
2022/08/18 09:27:40;;;;;;;;;;;;;;;22.48;31.13;97526.91;4899359;29;974;-77
2022/08/18 09:30:06;;;;;;;;;;;;;;;22.26;31.29;97533.38;4917345;29;992;-77
2022/08/18 09:32:40;;;;;;;;;;;;;;;22.49;31.09;97528.53;4921824;29;1130;-78
2022/08/18 09:35:08;;;;;;;;;;;;;;;22.54;31.00;97519.41;4900188;29;2114;-78
2022/08/18 09:37:43;;;;;;;;;;;;;;;22.31;31.41;97521.44;4899878;29;1335;-79
2022/08/18 09:43:14;;;;;;;;;;;;;;;22.51;31.40;97526.00;4789100;29;1907;-78
2022/08/18 09:45:46;;;;;;;;;;;;;;;22.47;31.29;97525.34;4803516;29;2013;-78
2022/08/18 09:48:11;;;;;;;;;;;;;;;22.51;31.35;97521.13;4792420;29;1986;-79
2022/08/18 09:50:50;;;;;;;;;;;;;;;22.36;31.59;97520.84;4789514;29;975;-78
2022/08/18 09:53:36;;;;;;;;;;;;;;;22.52;31.44;97519.84;4771106;30;1199;-80
2022/08/18 09:56:01;;;;;;;;;;;;;;;22.49;31.39;97511.50;4753633;30;1902;-78
2022/08/18 09:58:28;;;;;;;;;;;;;;;22.62;31.41;97520.72;4790030;29;1059;-78
2022/08/18 10:01:14;;;;;;;;;;;;;;;22.52;31.34;97513.41;4806768;29;1056;-77
2022/08/18 10:03:41;;;;;;;;;;;;;;;22.60;31.24;97517.56;4806491;29;1904;-79
2022/08/18 10:06:12;;;;;;;;;;;;;;;22.60;31.10;97520.41;4816302;29;999;-78
2022/08/18 10:08:42;;;;;;;;;;;;;;;22.61;31.41;97524.81;4824922;29;994;-78
2022/08/18 10:11:16;;;;;;;;;;;;;;;22.45;31.67;97510.84;4821969;29;1705;-78
2022/08/18 10:13:49;;;;;;;;;;;;;;;22.53;31.48;97517.81;4771172;30;1222;-78
2022/08/18 10:16:24;;;;;;;;;;;;;;;22.55;31.45;97518.16;4779609;30;1901;-78
2022/08/18 10:18:55;;;;;;;;;;;;;;;22.55;31.47;97518.94;4770881;30;1028;-78
2022/08/18 10:21:27;;;;;;;;;;;;;;;22.70;31.03;97513.53;4757214;30;1842;-78
2022/08/18 10:23:55;;;;;;;;;;;;;;;22.62;31.45;97515.03;4790662;29;1980;-79
2022/08/18 10:26:29;;;;;;;;;;;;;;;22.52;31.56;97513.41;4810685;29;934;-78
2022/08/18 10:29:04;;;;;;;;;;;;;;;22.60;31.30;97514.72;4825096;29;952;-78
2022/08/18 10:31:30;;;;;;;;;;;;;;;22.55;31.43;97516.09;4805429;29;1503;-78
2022/08/18 10:34:05;;;;;;;;;;;;;;;22.61;31.59;97516.28;4788691;30;951;-79
2022/08/18 10:36:42;;;;;;;;;;;;;;;22.44;31.83;97503.59;4788413;30;923;-79
2022/08/18 10:39:28;;;;;;;;;;;;;;;22.49;31.88;97517.19;4798629;29;1024;-79
2022/08/18 10:41:57;;;;;;;;;;;;;;;22.73;31.21;97509.75;4786810;30;1911;-78
2022/08/18 10:44:22;;;;;;;;;;;;;;;22.67;31.38;97511.59;4781153;30;1933;-78
2022/08/18 10:46:48;;;;;;;;;;;;;;;22.44;32.01;97510.06;4763265;30;966;-78
2022/08/18 10:49:16;;;;;;;;;;;;;;;22.35;31.89;97507.94;4774907;30;915;-78
2022/08/18 10:51:51;;;;;;;;;;;;;;;22.55;31.71;97515.31;4778710;30;1793;-78
2022/08/18 10:54:16;;;;;;;;;;;;;;;22.68;31.47;97510.34;4734932;30;2234;-79
2022/08/18 10:56:46;;;;;;;;;;;;;;;22.63;31.40;97516.59;4735478;30;935;-78
2022/08/18 10:59:25;;;;;;;;;;;;;;;22.60;31.73;97500.53;4699966;30;1072;-78
2022/08/18 11:01:50;;;;;;;;;;;;;;;22.67;31.30;97491.75;4711581;30;2102;-78
2022/08/18 11:04:35;;;;;;;;;;;;;;;22.75;31.75;97501.56;4752733;30;953;-78
2022/08/18 11:07:05;;;;;;;;;;;;;;;22.65;31.87;97497.09;4738050;30;1041;-79
2022/08/18 11:09:31;;;;;;;;;;;;;;;22.63;31.96;97499.59;4752470;30;1007;-77
2022/08/18 11:11:58;;;;;;;;;;;;;;;22.59;31.91;97504.63;4752739;30;1672;-78
2022/08/18 11:14:32;;;;;;;;;;;;;;;22.61;31.59;97499.28;4752520;30;971;-78
2022/08/18 11:17:14;;;;;;;;;;;;;;;22.57;31.79;97495.78;4752854;30;1811;-78
2022/08/18 11:19:40;;;;;;;;;;;;;;;22.75;31.64;97495.13;4798686;29;1036;-78
2022/08/18 11:22:06;;;;;;;;;;;;;;;22.75;31.79;97498.72;4838570;29;1923;-78
2022/08/18 11:24:34;;;;;;;;;;;;;;;22.53;31.96;97500.81;4872624;29;1451;-78
2022/08/18 11:27:15;;;;;;;;;;;;;;;22.65;31.93;97491.44;4896395;29;1668;-79
2022/08/18 11:29:41;;;;;;;;;;;;;;;22.58;32.02;97498.16;4924368;28;1889;-78
2022/08/18 11:32:07;;;;;;;;;;;;;;;22.60;32.17;97489.19;4956326;28;955;-78
2022/08/18 11:34:41;;;;;;;;;;;;;;;22.85;31.67;97488.22;4942620;29;1110;-78
2022/08/18 11:37:08;;;;;;;;;;;;;;;22.83;31.32;97485.84;4959245;29;1086;-78
2022/08/18 11:39:41;;;;;;;;;;;;;;;22.44;32.15;97492.25;4970093;28;1707;-79
2022/08/18 11:42:07;;;;;;;;;;;;;;;22.58;31.75;97491.69;4961925;28;1898;-78
2022/08/18 11:44:33;;;;;;;;;;;;;;;22.53;31.62;97500.81;4978410;28;1112;-78
2022/08/18 11:47:09;;;;;;;;;;;;;;;22.71;31.34;97485.94;4953884;28;1704;-78
2022/08/18 11:49:35;;;;;;;;;;;;;;;22.63;31.87;97485.41;4962367;28;1022;-78
2022/08/18 11:52:02;;;;;;;;;;;;;;;22.69;31.71;97475.06;4960633;28;2073;-78
2022/08/18 11:54:32;;;;;;;;;;;;;;;22.73;31.91;97474.91;4942485;29;1740;-79
2022/08/18 11:57:16;;;;;;;;;;;;;;;22.66;31.97;97480.88;4955191;29;1097;-79
2022/08/18 11:59:42;;;;;;;;;;;;;;;22.69;31.78;97479.94;4939706;29;920;-79
2022/08/18 12:02:07;;;;;;;;;;;;;;;22.51;32.08;97474.97;4941253;29;2196;-78
2022/08/18 12:04:39;;;;;;;;;;;;;;;22.51;32.30;97477.81;4942552;29;950;-78
2022/08/18 12:07:09;;;;;;;;;;;;;;;22.53;32.13;97478.13;4926763;29;1004;-78
2022/08/18 12:09:45;;;;;;;;;;;;;;;22.80;31.97;97475.44;4919944;29;1042;-79
2022/08/18 12:12:17;;;;;;;;;;;;;;;22.81;31.83;97477.00;4915434;29;1013;-78
2022/08/18 12:15:01;;;;;;;;;;;;;;;22.90;31.64;97478.31;4930739;29;1754;-79
2022/08/18 12:17:27;;;;;;;;;;;;;;;22.80;31.48;97481.13;4920264;29;925;-78
2022/08/18 12:19:52;;;;;;;;;;;;;;;22.87;31.45;97480.81;4920160;29;925;-78
2022/08/18 12:22:19;;;;;;;;;;;;;;;22.62;31.98;97472.50;4919601;29;1910;-78
2022/08/18 12:24:47;;;;;;;;;;;;;;;22.77;31.86;97476.34;4903814;29;1704;-78
2022/08/18 12:27:14;;;;;;;;;;;;;;;22.79;31.70;97479.50;4900967;29;964;-78
2022/08/18 12:29:39;;;;;;;;;;;;;;;22.84;31.76;97475.28;4900842;29;1092;-78
2022/08/18 12:32:05;;;;;;;;;;;;;;;22.85;31.71;97477.66;4906443;29;1865;-78
2022/08/18 12:34:32;;;;;;;;;;;;;;;22.81;31.64;97476.22;4902264;29;1765;-79
2022/08/18 12:36:59;;;;;;;;;;;;;;;22.68;31.95;97470.63;4901006;29;1048;-79
2022/08/18 12:39:25;;;;;;;;;;;;;;;22.77;31.70;97464.22;4863577;29;987;-79
2022/08/18 12:41:50;;;;;;;;;;;;;;;23.01;31.46;97468.16;4847548;29;1785;-78
2022/08/18 12:44:16;;;;;;;;;;;;;;;22.83;31.42;97462.34;4863116;29;1958;-78
2022/08/18 12:46:41;;;;;;;;;;;;;;;22.78;31.63;97463.75;4863353;29;1011;-78
2022/08/18 12:49:09;;;;;;;;;;;;;;;22.73;31.46;97455.84;4862697;29;1888;-78
2022/08/18 12:51:35;;;;;;;;;;;;;;;22.66;31.63;97456.16;4862780;29;1566;-79
2022/08/18 12:54:00;;;;;;;;;;;;;;;22.62;31.65;97455.50;4892632;29;969;-79
2022/08/18 12:56:28;;;;;;;;;;;;;;;22.91;31.44;97451.56;4900282;29;986;-77
2022/08/18 12:58:54;;;;;;;;;;;;;;;22.72;31.67;97451.44;4900609;29;892;-78
2022/08/18 13:01:20;;;;;;;;;;;;;;;22.65;31.90;97450.94;4862595;29;1899;-79
2022/08/18 13:03:45;;;;;;;;;;;;;;;22.63;31.76;97455.00;4863267;29;1911;-78
2022/08/18 13:06:11;;;;;;;;;;;;;;;22.65;31.60;97445.28;4847438;29;997;-78
2022/08/18 13:08:37;;;;;;;;;;;;;;;22.80;31.56;97449.13;4847694;29;1028;-78
2022/08/18 13:11:04;;;;;;;;;;;;;;;22.83;31.61;97457.47;4890821;29;1520;-78
2022/08/18 13:13:29;;;;;;;;;;;;;;;22.75;31.45;97452.56;4898861;29;1681;-78
2022/08/18 13:15:55;;;;;;;;;;;;;;;22.74;31.73;97443.28;4938059;29;961;-78
2022/08/18 13:18:21;;;;;;;;;;;;;;;22.81;31.76;97454.31;4938103;29;953;-78
2022/08/18 13:20:47;;;;;;;;;;;;;;;22.83;31.50;97454.63;4919059;29;1097;-78
2022/08/18 13:23:12;;;;;;;;;;;;;;;22.61;32.03;97451.88;4913062;29;1902;-78
2022/08/18 13:25:38;;;;;;;;;;;;;;;22.76;31.64;97451.31;4894611;29;2068;-78
2022/08/18 13:28:04;;;;;;;;;;;;;;;22.78;31.65;97443.09;4900313;29;947;-79
2022/08/18 13:30:30;;;;;;;;;;;;;;;22.76;31.65;97456.97;4899974;29;1014;-78